Apple Valley, North Dakota
Current Conditions -  °F | °C
As of 12:52 AM on Friday 31 Oct 2014 (Local Time) from KBIS Reporting Station
Clear Clear  
Wind Chill: 20°   Ceiling: Unl
Heat Index: 20°   Visibility: 10mi
Dew Point: 17°   Wind: 0mph
Humidity: 89%   Direction: NA
Pressure: 30.58"   Gusts: NA
Location:  46.8954°N, 100.519°W
Report Text: KBIS 310552Z 00000KT 10SM CLR M07/M08 A3058 RMK AO2 SLP382 I1000 I6000 T10671083 10017 21067 400331067 50005
Loading
Personal Weather Stations






























Interactive Weather Map
Tropical Storm Tracking
New forecast layout! Learn more

10-Day Weather Forecast

Advertisements
Track Severe Weather on mobile